Searchlight, Nevada
Current Conditions -  °F | °C
As of 10:15 AM on Thursday 30 Oct 2014 (Local Time) from KIFP Reporting Station
Clear Clear  
Wind Chill: 72°   Ceiling: Unl
Heat Index: 72°   Visibility: 10mi
Dew Point: 28°   Wind: 0mph
Humidity: 20%   Direction: NA
Pressure: 30.04"   Gusts: NA
Location:  35.46°N, 114.92°W
Report Text: KIFP 301715Z AUTO 00000KT 10SM CLR 22/M02 A3004 RMK AO2 PWINO
Loading
Personal Weather Stations






























Interactive Weather Map
Tropical Storm Tracking
New forecast layout! Learn more

10-Day Weather Forecast

Advertisements
Track Severe Weather on mobile